Time;durP1;ratioP1;P1;durP2;ratioP2;P2;SDS_P1;SDS_P2;PMS_P1;PMS_P2;Temp;Humidity;BMP_temperature;BMP_pressure;BME280_temperature;BME280_humidity;BME280_pressure;Samples;Min_cycle;Max_cycle;Signal;HPM_P1;HPM_P2
2022/04/16 00:00:23;;;;;;;6.93;4.53;;;;;;;;;;5038908;28;20060;-77
2022/04/16 00:02:49;;;;;;;11.95;5.65;;;;;;;;;;5053302;28;20025;-79
2022/04/16 00:05:16;;;;;;;6.88;4.38;;;;;;;;;;5053295;28;20025;-76
2022/04/16 00:07:42;;;;;;;6.25;4.35;;;;;;;;;;5053246;28;20472;-77
2022/04/16 00:10:09;;;;;;;6.40;4.40;;;;;;;;;;5053325;28;20457;-78
2022/04/16 00:12:35;;;;;;;6.53;4.15;;;;;;;;;;5035415;28;20375;-78
2022/04/16 00:15:01;;;;;;;9.07;4.43;;;;;;;;;;5053310;28;20095;-78
2022/04/16 00:17:28;;;;;;;6.95;4.25;;;;;;;;;;5053175;28;20029;-78
2022/04/16 00:19:54;;;;;;;6.38;5.30;;;;;;;;;;5042211;28;20029;-77
2022/04/16 00:22:25;;;;;;;5.47;4.22;;;;;;;;;;5032455;28;20045;-78
2022/04/16 00:24:55;;;;;;;7.40;4.40;;;;;;;;;;5032922;28;20053;-76
2022/04/16 00:27:22;;;;;;;5.20;4.30;;;;;;;;;;5030172;28;20026;-78
2022/04/16 00:29:48;;;;;;;6.13;3.92;;;;;;;;;;5015546;28;20025;-76
2022/04/16 00:32:14;;;;;;;7.72;5.18;;;;;;;;;;5033113;28;20028;-76
2022/04/16 00:34:40;;;;;;;5.05;4.00;;;;;;;;;;5033097;28;20033;-76
2022/04/16 00:37:06;;;;;;;7.78;5.00;;;;;;;;;;5034654;28;20041;-78
2022/04/16 00:39:33;;;;;;;7.90;3.80;;;;;;;;;;5037117;28;20025;-77
2022/04/16 00:41:59;;;;;;;4.47;3.50;;;;;;;;;;5037020;28;20056;-77
2022/04/16 00:44:25;;;;;;;6.75;3.90;;;;;;;;;;5037011;28;20102;-77
2022/04/16 00:46:51;;;;;;;6.53;4.32;;;;;;;;;;5036900;28;20030;-76
2022/04/16 00:49:17;;;;;;;4.97;4.00;;;;;;;;;;5036873;28;20037;-77
2022/04/16 00:51:45;;;;;;;5.40;4.18;;;;;;;;;;5036809;28;20369;-77
2022/04/16 00:54:12;;;;;;;5.68;4.00;;;;;;;;;;5036683;28;20068;-78
2022/04/16 00:56:38;;;;;;;5.90;4.30;;;;;;;;;;5036623;28;20079;-76
2022/04/16 00:59:05;;;;;;;4.55;4.03;;;;;;;;;;5036806;28;20461;-78
2022/04/16 01:01:34;;;;;;;7.65;3.70;;;;;;;;;;5036362;28;20505;-76
2022/04/16 01:04:02;;;;;;;5.93;4.10;;;;;;;;;;5036397;28;20073;-78
2022/04/16 01:06:48;;;;;;;6.65;3.85;;;;;;;;;;5036656;28;20469;-77
2022/04/16 01:09:15;;;;;;;8.57;4.63;;;;;;;;;;5018743;28;20021;-76
2022/04/16 01:11:41;;;;;;;7.55;4.28;;;;;;;;;;5036450;28;20045;-76
2022/04/16 01:14:07;;;;;;;5.57;3.83;;;;;;;;;;5036464;28;20022;-78
2022/04/16 01:16:36;;;;;;;4.90;4.00;;;;;;;;;;5036303;28;20036;-78
2022/04/16 01:19:03;;;;;;;7.32;6.30;;;;;;;;;;5036486;28;20031;-77
2022/04/16 01:21:29;;;;;;;7.60;5.82;;;;;;;;;;5036320;28;20096;-76
2022/04/16 01:23:55;;;;;;;7.93;6.32;;;;;;;;;;5036208;28;20506;-77
2022/04/16 01:26:23;;;;;;;6.13;5.00;;;;;;;;;;5036219;28;20025;-78
2022/04/16 01:28:49;;;;;;;8.00;6.82;;;;;;;;;;5036086;28;20028;-77
2022/04/16 01:31:15;;;;;;;9.73;8.63;;;;;;;;;;5036162;28;20021;-77
2022/04/16 01:33:41;;;;;;;8.57;7.40;;;;;;;;;;5036030;28;20033;-77
2022/04/16 01:36:08;;;;;;;5.38;4.82;;;;;;;;;;5036022;28;20025;-78
2022/04/16 01:38:34;;;;;;;9.02;5.68;;;;;;;;;;5035962;28;20477;-77
2022/04/16 01:41:00;;;;;;;7.55;4.68;;;;;;;;;;5035925;28;20061;-77
2022/04/16 01:43:26;;;;;;;6.72;5.50;;;;;;;;;;5035842;28;20026;-76
2022/04/16 01:45:56;;;;;;;6.97;5.22;;;;;;;;;;5035803;28;20039;-77
2022/04/16 01:48:27;;;;;;;5.10;4.60;;;;;;;;;;5034849;28;20033;-77
2022/04/16 01:50:53;;;;;;;6.57;4.43;;;;;;;;;;5035734;28;20396;-76
2022/04/16 01:53:20;;;;;;;5.82;4.72;;;;;;;;;;5035734;28;20456;-76
2022/04/16 01:55:46;;;;;;;4.47;4.00;;;;;;;;;;5035494;28;20551;-76
2022/04/16 01:58:13;;;;;;;8.00;4.45;;;;;;;;;;5035719;28;20037;-77
2022/04/16 02:00:39;;;;;;;5.32;4.00;;;;;;;;;;5043031;28;20496;-78
2022/04/16 02:03:07;;;;;;;4.72;4.20;;;;;;;;;;5055260;28;20120;-77
2022/04/16 02:05:33;;;;;;;5.63;3.97;;;;;;;;;;5055412;28;20087;-77
2022/04/16 02:07:59;;;;;;;7.15;4.30;;;;;;;;;;5055191;28;20040;-78
2022/04/16 02:10:26;;;;;;;6.93;4.63;;;;;;;;;;5055349;28;20021;-78
2022/04/16 02:12:52;;;;;;;5.68;4.53;;;;;;;;;;5055214;28;20084;-78
2022/04/16 02:15:18;;;;;;;5.07;3.72;;;;;;;;;;5055018;28;20025;-77
2022/04/16 02:17:44;;;;;;;6.00;3.92;;;;;;;;;;5055046;28;20029;-78
2022/04/16 02:20:11;;;;;;;7.85;4.80;;;;;;;;;;5055189;28;20049;-77
2022/04/16 02:22:43;;;;;;;5.50;3.85;;;;;;;;;;5055011;28;20017;-76
2022/04/16 02:25:10;;;;;;;4.40;4.00;;;;;;;;;;5054922;28;20377;-75
2022/04/16 02:27:36;;;;;;;5.22;4.15;;;;;;;;;;5054898;28;20021;-77
2022/04/16 02:30:07;;;;;;;5.22;3.90;;;;;;;;;;5054880;28;20021;-77
2022/04/16 02:32:36;;;;;;;7.20;4.43;;;;;;;;;;5054779;28;20377;-77
2022/04/16 02:35:02;;;;;;;5.18;4.25;;;;;;;;;;5054697;28;20396;-77
2022/04/16 02:37:28;;;;;;;7.78;5.00;;;;;;;;;;5054654;28;20052;-77
2022/04/16 02:39:54;;;;;;;5.85;4.50;;;;;;;;;;5054654;28;20029;-76
2022/04/16 02:42:21;;;;;;;4.90;4.50;;;;;;;;;;5054835;28;20021;-76
2022/04/16 02:47:32;;;;;;;8.88;5.50;;;;;;;;;;5054395;28;20047;-78
2022/04/16 02:49:58;;;;;;;6.53;4.53;;;;;;;;;;5054453;28;20547;-78
2022/04/16 02:52:25;;;;;;;5.97;4.78;;;;;;;;;;5054182;28;20021;-77
2022/04/16 02:54:52;;;;;;;5.72;4.80;;;;;;;;;;5054383;28;20029;-77
2022/04/16 02:57:19;;;;;;;5.45;4.53;;;;;;;;;;5054445;28;20027;-76
2022/04/16 02:59:46;;;;;;;6.65;4.85;;;;;;;;;;5053836;28;20025;-77
2022/04/16 03:02:13;;;;;;;8.40;4.85;;;;;;;;;;5054294;28;20116;-76
2022/04/16 03:04:39;;;;;;;5.65;4.75;;;;;;;;;;5054286;28;20384;-78
2022/04/16 03:07:05;;;;;;;7.32;5.90;;;;;;;;;;5054272;28;20025;-77
2022/04/16 03:09:31;;;;;;;7.47;5.30;;;;;;;;;;5054225;28;20021;-76
2022/04/16 03:11:58;;;;;;;4.57;4.18;;;;;;;;;;5054251;28;20021;-76
2022/04/16 03:19:54;;;;;;;4.97;4.47;;;;;;;;;;5054185;28;20117;-76
2022/04/16 03:22:20;;;;;;;6.35;5.05;;;;;;;;;;5054017;28;20086;-78
2022/04/16 03:24:46;;;;;;;5.70;4.47;;;;;;;;;;5053882;28;20025;-78
2022/04/16 03:27:12;;;;;;;5.85;4.70;;;;;;;;;;5053877;28;20029;-77
2022/04/16 03:29:39;;;;;;;8.70;4.57;;;;;;;;;;5053751;28;20021;-76
2022/04/16 03:32:05;;;;;;;5.28;4.55;;;;;;;;;;5053838;28;20070;-77
2022/04/16 03:34:32;;;;;;;5.10;4.03;;;;;;;;;;5053796;28;20032;-76
2022/04/16 03:36:58;;;;;;;5.80;4.43;;;;;;;;;;5053618;28;20036;-76
2022/04/16 03:39:24;;;;;;;6.00;4.38;;;;;;;;;;5053585;28;20028;-75
2022/04/16 03:41:50;;;;;;;4.85;4.07;;;;;;;;;;5053689;28;20024;-77
2022/04/16 03:44:17;;;;;;;5.72;4.15;;;;;;;;;;5053621;28;20423;-76
2022/04/16 03:46:43;;;;;;;9.35;5.65;;;;;;;;;;5053500;28;20096;-77
2022/04/16 03:49:09;;;;;;;7.07;4.88;;;;;;;;;;5053519;28;20094;-77
2022/04/16 03:51:35;;;;;;;7.10;4.47;;;;;;;;;;5053464;28;20119;-75
2022/04/16 03:59:59;;;;;;;7.45;5.20;;;;;;;;;;5053523;28;20017;-78
2022/04/16 04:02:16;;;;;;;10.48;5.88;;;;;;;;;;5053391;28;20396;-78
2022/04/16 04:04:43;;;;;;;10.82;6.82;;;;;;;;;;5053218;28;20028;-76
2022/04/16 04:07:10;;;;;;;6.07;4.88;;;;;;;;;;5053318;28;20013;-77
2022/04/16 04:09:38;;;;;;;5.57;4.75;;;;;;;;;;5053105;28;20029;-76
2022/04/16 04:12:06;;;;;;;7.15;4.72;;;;;;;;;;5052631;28;20361;-76
2022/04/16 04:14:32;;;;;;;5.45;4.05;;;;;;;;;;5053147;28;20383;-76
2022/04/16 04:16:58;;;;;;;7.75;4.75;;;;;;;;;;5053248;28;20025;-77
2022/04/16 04:19:24;;;;;;;5.28;4.07;;;;;;;;;;5053137;28;20461;-76
2022/04/16 04:21:50;;;;;;;5.78;4.10;;;;;;;;;;5053086;28;20029;-77
2022/04/16 04:24:16;;;;;;;5.53;4.15;;;;;;;;;;5053193;28;20024;-78
2022/04/16 04:26:42;;;;;;;5.22;4.10;;;;;;;;;;5053110;28;20031;-76
2022/04/16 04:29:09;;;;;;;7.68;4.60;;;;;;;;;;5053078;28;20048;-76
2022/04/16 04:31:35;;;;;;;7.55;4.45;;;;;;;;;;5052859;28;20036;-76
2022/04/16 04:34:01;;;;;;;5.40;3.90;;;;;;;;;;5052810;28;20021;-77
2022/04/16 04:36:27;;;;;;;5.65;4.55;;;;;;;;;;5052933;28;20111;-77
2022/04/16 04:38:53;;;;;;;6.28;5.30;;;;;;;;;;5053092;28;20063;-78
2022/04/16 04:41:19;;;;;;;8.35;7.28;;;;;;;;;;5053009;28;20028;-76
2022/04/16 04:43:45;;;;;;;22.35;7.78;;;;;;;;;;5053014;28;20021;-77
2022/04/16 04:46:11;;;;;;;11.70;7.05;;;;;;;;;;5052837;28;20120;-78
2022/04/16 04:48:37;;;;;;;8.85;6.22;;;;;;;;;;5033682;28;20461;-76
2022/04/16 04:51:04;;;;;;;8.27;6.25;;;;;;;;;;5052914;28;20025;-77
2022/04/16 04:53:30;;;;;;;8.02;6.03;;;;;;;;;;5052693;28;20025;-76
2022/04/16 04:55:56;;;;;;;6.68;5.25;;;;;;;;;;5052746;28;20052;-78
2022/04/16 04:58:22;;;;;;;8.07;5.68;;;;;;;;;;5052213;28;20033;-77
2022/04/16 05:00:48;;;;;;;11.35;6.82;;;;;;;;;;5051016;28;20049;-76
2022/04/16 05:03:14;;;;;;;9.98;6.72;;;;;;;;;;5052672;28;20032;-76
2022/04/16 05:05:40;;;;;;;8.75;6.30;;;;;;;;;;5052625;28;20049;-78
2022/04/16 05:08:06;;;;;;;18.58;10.25;;;;;;;;;;5052743;28;20092;-78
2022/04/16 05:10:32;;;;;;;21.33;11.73;;;;;;;;;;5052720;28;20021;-77
2022/04/16 05:12:58;;;;;;;9.48;7.25;;;;;;;;;;5052759;28;20067;-77
2022/04/16 05:15:25;;;;;;;12.27;7.53;;;;;;;;;;5034854;28;20025;-78
2022/04/16 05:17:51;;;;;;;9.35;6.90;;;;;;;;;;5052489;28;20025;-76
2022/04/16 05:20:17;;;;;;;6.20;5.60;;;;;;;;;;5052447;28;20021;-78
2022/04/16 05:22:43;;;;;;;7.60;5.53;;;;;;;;;;5050511;28;20025;-76
2022/04/16 05:25:09;;;;;;;7.00;5.60;;;;;;;;;;5055550;28;20021;-77
2022/04/16 05:27:35;;;;;;;7.63;6.28;;;;;;;;;;5056165;28;20029;-76
2022/04/16 05:30:12;;;;;;;9.13;6.22;;;;;;;;;;5055989;28;20021;-76
2022/04/16 05:32:40;;;;;;;8.27;6.43;;;;;;;;;;5056019;28;20383;-78
2022/04/16 05:35:07;;;;;;;13.00;6.70;;;;;;;;;;5056055;28;20021;-79
2022/04/16 05:37:33;;;;;;;13.82;7.57;;;;;;;;;;5055443;28;20036;-78
2022/04/16 05:39:59;;;;;;;11.63;9.05;;;;;;;;;;5055949;28;20044;-77
2022/04/16 05:42:25;;;;;;;11.20;6.70;;;;;;;;;;5055755;28;20079;-77
2022/04/16 05:44:51;;;;;;;8.05;5.32;;;;;;;;;;5055822;28;20049;-80
2022/04/16 05:47:18;;;;;;;9.55;5.55;;;;;;;;;;5055548;28;20483;-76
2022/04/16 05:49:44;;;;;;;8.77;5.13;;;;;;;;;;5055672;28;20104;-79
2022/04/16 05:52:10;;;;;;;17.75;11.73;;;;;;;;;;5055526;28;20035;-78
2022/04/16 05:54:37;;;;;;;28.98;23.02;;;;;;;;;;5055586;28;20021;-79
2022/04/16 05:57:03;;;;;;;17.92;13.38;;;;;;;;;;5055438;28;20090;-79
2022/04/16 05:59:29;;;;;;;12.80;9.20;;;;;;;;;;5055760;28;20100;-80
2022/04/16 06:01:56;;;;;;;12.68;7.40;;;;;;;;;;5055300;28;20167;-80
2022/04/16 06:04:22;;;;;;;42.63;33.38;;;;;;;;;;5055267;28;20025;-76
2022/04/16 06:06:48;;;;;;;12.13;8.88;;;;;;;;;;5055346;28;20032;-80
2022/04/16 06:09:14;;;;;;;9.57;6.43;;;;;;;;;;5055059;28;20021;-80
2022/04/16 06:11:42;;;;;;;8.65;5.97;;;;;;;;;;5055206;28;20087;-76
2022/04/16 06:14:09;;;;;;;8.18;6.55;;;;;;;;;;5037392;28;20439;-80
2022/04/16 06:16:35;;;;;;;8.93;6.60;;;;;;;;;;5055030;28;20035;-77
2022/04/16 06:19:01;;;;;;;8.57;5.43;;;;;;;;;;5055235;28;20029;-78
2022/04/16 06:21:27;;;;;;;6.80;6.10;;;;;;;;;;5054958;28;20444;-78
2022/04/16 06:23:53;;;;;;;7.13;5.60;;;;;;;;;;5044443;28;20040;-78
2022/04/16 06:26:19;;;;;;;10.95;6.97;;;;;;;;;;5035032;28;20025;-78
2022/04/16 06:28:46;;;;;;;8.52;6.40;;;;;;;;;;5034990;28;20026;-76
2022/04/16 06:31:14;;;;;;;10.13;5.90;;;;;;;;;;5034907;28;20117;-76
2022/04/16 06:33:40;;;;;;;8.77;7.57;;;;;;;;;;5017058;28;20075;-76
2022/04/16 06:36:06;;;;;;;8.48;7.53;;;;;;;;;;5034430;28;20025;-77
2022/04/16 06:38:32;;;;;;;7.55;6.18;;;;;;;;;;5034912;28;20032;-77
2022/04/16 06:40:59;;;;;;;9.00;5.95;;;;;;;;;;5034785;28;20083;-77
2022/04/16 06:43:25;;;;;;;9.85;6.40;;;;;;;;;;5034668;28;20389;-78
2022/04/16 06:45:51;;;;;;;6.75;6.15;;;;;;;;;;5034836;28;20105;-79
2022/04/16 06:48:17;;;;;;;8.07;7.07;;;;;;;;;;5034525;28;20025;-76
2022/04/16 06:50:43;;;;;;;9.70;6.95;;;;;;;;;;5034424;28;20480;-76
2022/04/16 06:53:09;;;;;;;8.38;7.45;;;;;;;;;;5034447;28;20017;-77
2022/04/16 06:55:35;;;;;;;8.80;7.72;;;;;;;;;;5034463;28;20021;-78
2022/04/16 06:58:01;;;;;;;10.27;7.57;;;;;;;;;;5034445;28;20021;-77
2022/04/16 07:00:27;;;;;;;9.20;7.75;;;;;;;;;;5034070;28;20045;-78
2022/04/16 07:02:53;;;;;;;12.30;9.93;;;;;;;;;;5034284;28;20108;-77
2022/04/16 07:05:20;;;;;;;15.90;13.80;;;;;;;;;;5034280;28;20040;-78
2022/04/16 07:07:46;;;;;;;20.40;13.75;;;;;;;;;;5034227;28;20032;-76
2022/04/16 07:10:12;;;;;;;9.60;7.90;;;;;;;;;;5034191;28;20126;-79
2022/04/16 07:12:39;;;;;;;17.88;14.07;;;;;;;;;;5034124;28;20021;-78
2022/04/16 07:15:05;;;;;;;24.00;15.32;;;;;;;;;;5034174;28;20049;-78
2022/04/16 07:17:31;;;;;;;14.38;10.27;;;;;;;;;;5034031;28;20112;-80
2022/04/16 07:19:57;;;;;;;19.15;14.73;;;;;;;;;;5034158;28;20036;-78
2022/04/16 07:22:24;;;;;;;14.68;10.95;;;;;;;;;;5033775;28;20030;-78
2022/04/16 07:24:51;;;;;;;15.48;12.55;;;;;;;;;;5033903;28;20485;-79
2022/04/16 07:27:17;;;;;;;8.90;7.68;;;;;;;;;;5033523;28;20071;-77
2022/04/16 07:29:43;;;;;;;14.10;11.60;;;;;;;;;;5047171;28;20029;-80
2022/04/16 07:32:09;;;;;;;33.88;26.52;;;;;;;;;;5052857;28;20048;-78
2022/04/16 07:34:35;;;;;;;14.35;10.45;;;;;;;;;;5052839;28;20372;-77
2022/04/16 07:37:02;;;;;;;8.63;6.75;;;;;;;;;;5052520;28;20033;-80
2022/04/16 07:39:28;;;;;;;13.60;8.40;;;;;;;;;;5052716;28;20017;-79
2022/04/16 07:41:54;;;;;;;9.52;6.72;;;;;;;;;;5052581;28;20420;-77
2022/04/16 07:44:20;;;;;;;11.32;7.03;;;;;;;;;;5052527;28;20021;-80
2022/04/16 07:46:46;;;;;;;8.75;7.13;;;;;;;;;;5051659;28;20082;-80
2022/04/16 07:49:12;;;;;;;9.32;7.20;;;;;;;;;;5052686;28;20510;-80
2022/04/16 07:51:39;;;;;;;17.58;7.35;;;;;;;;;;5052080;28;20028;-80
2022/04/16 07:54:08;;;;;;;8.30;5.30;;;;;;;;;;5052467;28;20017;-78
2022/04/16 07:56:34;;;;;;;6.72;5.72;;;;;;;;;;5052160;28;20037;-81
2022/04/16 07:59:00;;;;;;;9.25;5.50;;;;;;;;;;5051226;28;20040;-77
2022/04/16 08:01:27;;;;;;;10.05;6.63;;;;;;;;;;5050983;28;20047;-83
2022/04/16 08:03:53;;;;;;;8.57;5.97;;;;;;;;;;5051610;28;20024;-77
2022/04/16 08:06:20;;;;;;;10.80;6.32;;;;;;;;;;5049122;28;20017;-79
2022/04/16 08:08:46;;;;;;;9.32;6.00;;;;;;;;;;5034610;28;20078;-78
2022/04/16 08:11:12;;;;;;;11.18;5.75;;;;;;;;;;5051665;28;20017;-81
2022/04/16 08:13:39;;;;;;;10.23;6.55;;;;;;;;;;5051620;28;20067;-81
2022/04/16 08:16:05;;;;;;;8.55;6.30;;;;;;;;;;5051666;28;20507;-78
2022/04/16 08:18:31;;;;;;;12.65;6.53;;;;;;;;;;5051842;28;20029;-79
2022/04/16 08:20:58;;;;;;;7.88;5.90;;;;;;;;;;5051632;28;20021;-78
2022/04/16 08:23:24;;;;;;;7.15;4.60;;;;;;;;;;5051886;28;20461;-80
2022/04/16 08:25:50;;;;;;;6.70;4.45;;;;;;;;;;5051635;28;20461;-79
2022/04/16 08:28:16;;;;;;;9.07;4.50;;;;;;;;;;5051574;28;20028;-80
2022/04/16 08:30:42;;;;;;;10.32;5.53;;;;;;;;;;5051996;28;20024;-79
2022/04/16 08:33:13;;;;;;;9.43;6.20;;;;;;;;;;5052216;28;20025;-78
2022/04/16 08:35:42;;;;;;;5.32;3.97;;;;;;;;;;5052777;28;20029;-83
2022/04/16 08:38:12;;;;;;;6.90;5.05;;;;;;;;;;5052838;28;20463;-81
2022/04/16 08:40:38;;;;;;;7.90;4.18;;;;;;;;;;5052860;28;20434;-79
2022/04/16 08:43:06;;;;;;;6.60;4.90;;;;;;;;;;5052816;28;20024;-81
2022/04/16 08:45:35;;;;;;;7.97;4.13;;;;;;;;;;5035057;28;20017;-77
2022/04/16 08:48:01;;;;;;;4.28;3.85;;;;;;;;;;5052709;28;20444;-82
2022/04/16 08:50:27;;;;;;;8.90;4.72;;;;;;;;;;5052699;28;20376;-80
2022/04/16 08:52:53;;;;;;;6.50;3.92;;;;;;;;;;5053030;28;20024;-78
2022/04/16 08:55:20;;;;;;;7.25;4.13;;;;;;;;;;5052768;28;20521;-85
2022/04/16 08:57:46;;;;;;;5.68;4.30;;;;;;;;;;5035789;28;20037;-79
2022/04/16 09:00:13;;;;;;;7.18;4.18;;;;;;;;;;5052575;28;20053;-83
2022/04/16 09:02:49;;;;;;;7.93;3.58;;;;;;;;;;5036601;28;20018;-83
2022/04/16 09:05:18;;;;;;;5.63;3.35;;;;;;;;;;5036569;28;20476;-83
2022/04/16 09:07:45;;;;;;;6.57;3.20;;;;;;;;;;5036376;28;20017;-81
2022/04/16 09:10:11;;;;;;;6.63;3.28;;;;;;;;;;5036467;28;20144;-82
2022/04/16 09:12:38;;;;;;;6.82;4.00;;;;;;;;;;5036527;28;20045;-83
2022/04/16 09:15:05;;;;;;;5.65;3.13;;;;;;;;;;5036163;28;20156;-84
2022/04/16 09:17:32;;;;;;;6.88;3.50;;;;;;;;;;5018847;28;20079;-83
2022/04/16 09:19:58;;;;;;;6.15;3.55;;;;;;;;;;5018446;28;20028;-79
2022/04/16 09:22:35;;;;;;;5.57;3.15;;;;;;;;;;5036065;28;20029;-83
2022/04/16 09:25:02;;;;;;;7.53;3.28;;;;;;;;;;5036204;28;20053;-80
2022/04/16 09:27:28;;;;;;;4.70;3.17;;;;;;;;;;5036181;28;20408;-85
2022/04/16 09:29:54;;;;;;;11.02;8.88;;;;;;;;;;5036264;28;20485;-81
2022/04/16 09:32:22;;;;;;;7.03;3.45;;;;;;;;;;5018120;28;20427;-77
2022/04/16 09:34:48;;;;;;;9.10;3.50;;;;;;;;;;5036070;28;20469;-82
2022/04/16 09:37:14;;;;;;;8.20;3.30;;;;;;;;;;5035825;28;20505;-80
2022/04/16 09:39:41;;;;;;;5.15;3.28;;;;;;;;;;5035875;28;20531;-79
2022/04/16 09:42:07;;;;;;;5.45;3.60;;;;;;;;;;5035837;28;20028;-79
2022/04/16 09:44:33;;;;;;;7.47;3.38;;;;;;;;;;5035538;28;20064;-82
2022/04/16 09:46:59;;;;;;;8.90;2.90;;;;;;;;;;5035749;28;20116;-80
2022/04/16 09:49:26;;;;;;;7.40;3.40;;;;;;;;;;5035898;28;20167;-82
2022/04/16 09:51:52;;;;;;;6.97;3.80;;;;;;;;;;5035757;28;20499;-79
2022/04/16 09:54:21;;;;;;;6.68;3.50;;;;;;;;;;5035666;28;20037;-81
2022/04/16 09:56:48;;;;;;;5.97;3.17;;;;;;;;;;5035633;28;20028;-82
2022/04/16 09:59:15;;;;;;;4.95;3.75;;;;;;;;;;5035548;28;20131;-79
2022/04/16 10:01:46;;;;;;;4.40;2.85;;;;;;;;;;5051715;28;20056;-80
2022/04/16 10:04:14;;;;;;;5.55;2.78;;;;;;;;;;5037628;28;20025;-81
2022/04/16 10:06:41;;;;;;;4.90;3.22;;;;;;;;;;5055582;28;20021;-81
2022/04/16 10:15:00;;;;;;;3.63;2.75;;;;;;;;;;5055710;28;20043;-82
2022/04/16 10:17:45;;;;;;;4.75;2.60;;;;;;;;;;5055190;28;20025;-81
2022/04/16 10:20:13;;;;;;;5.57;3.13;;;;;;;;;;5055180;28;20056;-80
2022/04/16 10:22:39;;;;;;;4.65;2.92;;;;;;;;;;5055189;28;20550;-82
2022/04/16 10:25:05;;;;;;;5.03;3.50;;;;;;;;;;5055167;28;20476;-79
2022/04/16 10:27:33;;;;;;;4.57;2.35;;;;;;;;;;5055077;28;20032;-80
2022/04/16 10:30:00;;;;;;;4.25;2.78;;;;;;;;;;5037051;28;20349;-77
2022/04/16 10:32:28;;;;;;;4.70;2.85;;;;;;;;;;5055043;28;20096;-78
2022/04/16 10:35:08;;;;;;;4.82;2.78;;;;;;;;;;5054899;28;20045;-78
2022/04/16 10:37:41;;;;;;;5.07;3.10;;;;;;;;;;5054734;28;20071;-79
2022/04/16 10:40:26;;;;;;;4.10;3.03;;;;;;;;;;5054862;28;20041;-78
2022/04/16 10:43:01;;;;;;;4.13;2.50;;;;;;;;;;5054752;28;20033;-80
2022/04/16 10:45:27;;;;;;;4.22;2.85;;;;;;;;;;5036944;28;20013;-78
2022/04/16 10:47:56;;;;;;;7.32;2.70;;;;;;;;;;5054290;28;20439;-78
2022/04/16 10:50:23;;;;;;;6.68;3.92;;;;;;;;;;5054445;28;20029;-78
2022/04/16 10:52:56;;;;;;;6.85;3.72;;;;;;;;;;5036643;28;20013;-84
2022/04/16 10:55:30;;;;;;;5.97;3.63;;;;;;;;;;5054491;28;20048;-79
2022/04/16 10:57:57;;;;;;;3.70;2.45;;;;;;;;;;5054366;28;20103;-77
2022/04/16 11:00:34;;;;;;;3.55;2.40;;;;;;;;;;5036376;28;20522;-84
2022/04/16 11:03:21;;;;;;;3.85;2.85;;;;;;;;;;5054270;28;20025;-80
2022/04/16 11:05:47;;;;;;;5.03;2.58;;;;;;;;;;5054252;28;20033;-80
2022/04/16 11:08:14;;;;;;;3.85;2.92;;;;;;;;;;5054257;28;20017;-79
2022/04/16 11:10:41;;;;;;;3.97;2.42;;;;;;;;;;5054019;28;20020;-79
2022/04/16 11:13:07;;;;;;;7.57;2.75;;;;;;;;;;5053902;28;20443;-79
2022/04/16 11:15:34;;;;;;;5.72;2.60;;;;;;;;;;5053832;28;20021;-79
2022/04/16 11:18:03;;;;;;;8.35;2.78;;;;;;;;;;5053806;28;20029;-80
2022/04/16 11:20:30;;;;;;;5.00;2.83;;;;;;;;;;5053857;28;20060;-80
2022/04/16 11:22:58;;;;;;;6.32;2.75;;;;;;;;;;5053920;28;20480;-80
2022/04/16 11:34:14;;;;;;;6.75;2.88;;;;;;;;;;5053977;28;20021;-83
2022/04/16 11:36:41;;;;;;;4.80;3.47;;;;;;;;;;5031957;28;20029;-79
2022/04/16 11:39:27;;;;;;;5.78;2.80;;;;;;;;;;5053500;28;20539;-81
2022/04/16 11:41:55;;;;;;;5.45;2.25;;;;;;;;;;5053374;28;20029;-78
2022/04/16 11:44:43;;;;;;;5.90;2.50;;;;;;;;;;5053660;28;20040;-81
2022/04/16 11:47:09;;;;;;;5.18;2.67;;;;;;;;;;5053326;28;20051;-78
2022/04/16 11:49:41;;;;;;;5.90;2.08;;;;;;;;;;5053406;28;20029;-77
2022/04/16 11:52:08;;;;;;;5.75;2.85;;;;;;;;;;5035435;28;20420;-78
2022/04/16 11:54:34;;;;;;;5.10;2.92;;;;;;;;;;5053543;28;20049;-80
2022/04/16 11:57:01;;;;;;;5.30;2.70;;;;;;;;;;5053376;28;20483;-79
2022/04/16 11:59:28;;;;;;;6.22;2.80;;;;;;;;;;5035255;28;20072;-84
2022/04/16 12:02:07;;;;;;;5.97;2.63;;;;;;;;;;5053112;28;20049;-78
2022/04/16 12:04:37;;;;;;;5.65;2.50;;;;;;;;;;5053232;28;20027;-80
2022/04/16 12:07:04;;;;;;;4.95;2.53;;;;;;;;;;5053429;28;20105;-80
2022/04/16 12:09:33;;;;;;;4.50;3.42;;;;;;;;;;5053357;28;20488;-83
2022/04/16 12:12:04;;;;;;;3.72;2.83;;;;;;;;;;5053244;28;20033;-79
2022/04/16 12:14:30;;;;;;;5.70;2.17;;;;;;;;;;5053281;28;20104;-76
2022/04/16 12:17:15;;;;;;;5.55;2.65;;;;;;;;;;5053133;28;20028;-77
2022/04/16 12:19:42;;;;;;;3.95;2.40;;;;;;;;;;5053373;28;20025;-80
2022/04/16 12:22:16;;;;;;;5.22;3.10;;;;;;;;;;5053111;28;20017;-80
2022/04/16 12:24:42;;;;;;;4.75;2.45;;;;;;;;;;5053132;28;20104;-78
2022/04/16 12:27:08;;;;;;;4.72;2.38;;;;;;;;;;5053167;28;20025;-79
2022/04/16 12:29:34;;;;;;;3.28;2.42;;;;;;;;;;5053331;28;20029;-84
2022/04/16 12:32:00;;;;;;;5.82;2.80;;;;;;;;;;5053196;28;20025;-82
2022/04/16 12:34:26;;;;;;;4.50;3.10;;;;;;;;;;5057164;28;20024;-79
2022/04/16 12:36:53;;;;;;;2.92;1.98;;;;;;;;;;5057135;28;20055;-80
2022/04/16 12:39:19;;;;;;;3.55;2.15;;;;;;;;;;5057141;28;20057;-88
2022/04/16 12:41:45;;;;;;;5.28;3.00;;;;;;;;;;5039180;28;20104;-80
2022/04/16 12:44:11;;;;;;;4.57;2.42;;;;;;;;;;5057001;28;20025;-78
2022/04/16 12:46:37;;;;;;;3.97;2.30;;;;;;;;;;5057066;28;20021;-79
2022/04/16 12:49:04;;;;;;;3.88;2.63;;;;;;;;;;5056965;28;20104;-88
2022/04/16 12:51:30;;;;;;;5.10;2.10;;;;;;;;;;5057000;28;20472;-80
2022/04/16 12:53:56;;;;;;;5.63;2.20;;;;;;;;;;5056686;28;20685;-80
2022/04/16 12:56:22;;;;;;;3.30;2.35;;;;;;;;;;5056768;28;20423;-84
2022/04/16 12:58:48;;;;;;;3.45;2.40;;;;;;;;;;5038874;28;20021;-83
2022/04/16 13:01:14;;;;;;;3.70;2.40;;;;;;;;;;5038887;28;20057;-84
2022/04/16 13:03:40;;;;;;;4.15;2.75;;;;;;;;;;5036814;28;20025;-80
2022/04/16 13:06:06;;;;;;;8.75;3.65;;;;;;;;;;5036701;28;20022;-79
2022/04/16 13:08:32;;;;;;;3.67;2.58;;;;;;;;;;5036632;28;20104;-77
2022/04/16 13:10:58;;;;;;;4.78;2.88;;;;;;;;;;5036600;28;20021;-86
2022/04/16 13:13:25;;;;;;;4.75;2.05;;;;;;;;;;5036682;28;20028;-81
2022/04/16 13:15:51;;;;;;;4.55;3.05;;;;;;;;;;5036651;28;20049;-79
2022/04/16 13:18:17;;;;;;;5.43;2.85;;;;;;;;;;5036573;28;20494;-78
2022/04/16 13:20:43;;;;;;;4.63;3.28;;;;;;;;;;5036312;28;20017;-81
2022/04/16 13:23:10;;;;;;;4.07;2.75;;;;;;;;;;5036406;28;20064;-77
2022/04/16 13:25:36;;;;;;;5.50;3.97;;;;;;;;;;5036240;28;20029;-81
2022/04/16 13:28:02;;;;;;;7.20;3.83;;;;;;;;;;5036309;28;20393;-86
2022/04/16 13:30:28;;;;;;;6.03;2.95;;;;;;;;;;5036227;28;20488;-80
2022/04/16 13:32:54;;;;;;;4.72;3.40;;;;;;;;;;5036124;28;20026;-78
2022/04/16 13:35:21;;;;;;;6.88;3.67;;;;;;;;;;5036283;28;20022;-78
2022/04/16 13:37:47;;;;;;;4.97;2.83;;;;;;;;;;5036092;28;20032;-79
2022/04/16 13:42:58;;;;;;;;;;;;;;;;;;5036471;28;20032;-80
2022/04/16 13:45:24;;;;;;;22.85;4.82;;;;;;;;;;5034705;28;19905;-82
2022/04/16 13:47:50;;;;;;;6.32;3.47;;;;;;;;;;5035918;28;20384;-79
2022/04/16 13:50:16;;;;;;;5.10;3.42;;;;;;;;;;5035884;28;20022;-83
2022/04/16 13:52:43;;;;;;;6.70;5.05;;;;;;;;;;5035758;28;20034;-78
2022/04/16 13:55:09;;;;;;;8.38;4.30;;;;;;;;;;5035805;28;20056;-82
2022/04/16 13:57:35;;;;;;;4.75;4.07;;;;;;;;;;5035643;28;20042;-77
2022/04/16 14:00:01;;;;;;;6.63;4.53;;;;;;;;;;5033112;28;20028;-83
2022/04/16 14:02:27;;;;;;;8.80;6.00;;;;;;;;;;5015863;28;20138;-80
2022/04/16 14:07:38;;;;;;;;;;;;;;;;;;5016169;28;20041;-82
2022/04/16 14:10:05;;;;;;;7.53;3.55;;;;;;;;;;5015713;28;19995;-82
2022/04/16 14:12:32;;;;;;;4.80;3.95;;;;;;;;;;5015814;28;20022;-78
2022/04/16 14:14:58;;;;;;;5.75;4.10;;;;;;;;;;5015898;28;20022;-77
2022/04/16 14:17:24;;;;;;;5.50;3.97;;;;;;;;;;5015648;28;20041;-84
2022/04/16 14:19:50;;;;;;;7.30;3.63;;;;;;;;;;5015624;28;20026;-78
2022/04/16 14:22:16;;;;;;;10.43;4.25;;;;;;;;;;5015555;28;20069;-77
2022/04/16 14:24:42;;;;;;;5.78;4.22;;;;;;;;;;5015493;28;20474;-79
2022/04/16 14:27:12;;;;;;;6.35;4.88;;;;;;;;;;5015630;28;20033;-79
2022/04/16 14:29:38;;;;;;;5.57;4.28;;;;;;;;;;4997642;28;20034;-79
2022/04/16 14:32:04;;;;;;;6.05;4.18;;;;;;;;;;5015319;28;20033;-81
2022/04/16 14:34:30;;;;;;;4.22;3.83;;;;;;;;;;5015287;28;20034;-83
2022/04/16 14:36:58;;;;;;;8.25;4.32;;;;;;;;;;4997515;28;20387;-79
2022/04/16 14:39:24;;;;;;;6.15;4.43;;;;;;;;;;5015179;28;20076;-79
2022/04/16 14:41:50;;;;;;;7.72;4.55;;;;;;;;;;5015173;28;20029;-81
2022/04/16 14:44:17;;;;;;;5.85;5.20;;;;;;;;;;5015077;28;20030;-82
2022/04/16 14:46:43;;;;;;;6.97;4.53;;;;;;;;;;5014959;28;20034;-81
2022/04/16 14:49:10;;;;;;;5.25;4.43;;;;;;;;;;5015248;28;20029;-80
2022/04/16 14:51:40;;;;;;;5.47;4.68;;;;;;;;;;5014997;28;20025;-84
2022/04/16 14:54:06;;;;;;;7.43;4.10;;;;;;;;;;5015043;28;20029;-80
2022/04/16 14:56:33;;;;;;;5.03;3.95;;;;;;;;;;5014534;28;20044;-81
2022/04/16 14:59:01;;;;;;;7.15;4.32;;;;;;;;;;5014868;28;20022;-82
2022/04/16 15:01:27;;;;;;;5.97;4.15;;;;;;;;;;5014717;28;20052;-80
2022/04/16 15:03:53;;;;;;;5.40;4.30;;;;;;;;;;5014808;28;20026;-76
2022/04/16 15:06:19;;;;;;;9.35;4.70;;;;;;;;;;5014661;28;20124;-77
2022/04/16 15:08:45;;;;;;;6.03;4.38;;;;;;;;;;5014775;28;20018;-78
2022/04/16 15:11:11;;;;;;;5.43;4.82;;;;;;;;;;5014689;28;20080;-76
2022/04/16 15:13:38;;;;;;;6.50;4.97;;;;;;;;;;5014642;28;20021;-82